Home > Products > Valid Products > TAF

000
FTUS45 KCYS 291145 CCA
TAFCYS
TAF COR
KCYS 291145Z 2912/3012 33017G25KT P6SM SKC
     FM291800 29014KT P6SM SKC
     FM300000 21008KT P6SM SKC=



000
FTUS45 KCYS 291145 CCA
TAFCYS
TAF COR
KCYS 291145Z 2912/3012 33017G25KT P6SM SKC
     FM291800 29014KT P6SM SKC
     FM300000 21008KT P6SM SKC=



000
FTUS45 KCYS 291122
TAFLAR
TAF
KLAR 291122Z 2912/3012 34008KT P6SM SKC
     FM291600 28010KT P6SM SKC
     FM300200 20006KT P6SM SCT250=



000
FTUS45 KCYS 291122
TAFCYS
TAF
KCYS 291122Z 2912/3012 32017G25KT P6SM SKC
     FM291800 28014KT P6SM SKC
     FM300000 21008KT P6SM SKC=



000
FTUS45 KCYS 291122
TAFRWL
TAF
KRWL 291122Z 2912/3012 35007KT P6SM SKC
     FM291600 25012G20KT P6SM SKC
     FM300100 25007KT P6SM SCT250=



000
FTUS45 KCYS 291122
TAFLAR
TAF
KLAR 291122Z 2912/3012 34008KT P6SM SKC
     FM291600 28010KT P6SM SKC
     FM300200 20006KT P6SM SCT250=



000
FTUS45 KCYS 291122
TAFCYS
TAF
KCYS 291122Z 2912/3012 32017G25KT P6SM SKC
     FM291800 28014KT P6SM SKC
     FM300000 21008KT P6SM SKC=



000
FTUS45 KCYS 291122
TAFCYS
TAF
KCYS 291122Z 2912/3012 32017G25KT P6SM SKC
     FM291800 28014KT P6SM SKC
     FM300000 21008KT P6SM SKC=



000
FTUS45 KCYS 291122
TAFRWL
TAF
KRWL 291122Z 2912/3012 35007KT P6SM SKC
     FM291600 25012G20KT P6SM SKC
     FM300100 25007KT P6SM SCT250=



000
FTUS45 KCYS 291122
TAFLAR
TAF
KLAR 291122Z 2912/3012 34008KT P6SM SKC
     FM291600 28010KT P6SM SKC
     FM300200 20006KT P6SM SCT250=



000
FTUS45 KCYS 291122
TAFRWL
TAF
KRWL 291122Z 2912/3012 35007KT P6SM SKC
     FM291600 25012G20KT P6SM SKC
     FM300100 25007KT P6SM SCT250=



000
FTUS45 KCYS 291122
TAFCYS
TAF
KCYS 291122Z 2912/3012 32017G25KT P6SM SKC
     FM291800 28014KT P6SM SKC
     FM300000 21008KT P6SM SKC=



000
FTUS45 KCYS 291122
TAFRWL
TAF
KRWL 291122Z 2912/3012 35007KT P6SM SKC
     FM291600 25012G20KT P6SM SKC
     FM300100 25007KT P6SM SCT250=



000
FTUS45 KCYS 291122
TAFLAR
TAF
KLAR 291122Z 2912/3012 34008KT P6SM SKC
     FM291600 28010KT P6SM SKC
     FM300200 20006KT P6SM SCT250=



000
FTUS45 KCYS 290818 AAA
TAFRWL
TAF AMD
KRWL 290818Z 2908/3006 32012KT P6SM SKC
     FM291600 25012G20KT P6SM SCT250=



000
FTUS45 KCYS 290818 AAA
TAFRWL
TAF AMD
KRWL 290818Z 2908/3006 32012KT P6SM SKC
     FM291600 25012G20KT P6SM SCT250=



000
FTUS45 KCYS 290818 AAA
TAFRWL
TAF AMD
KRWL 290818Z 2908/3006 32012KT P6SM SKC
     FM291600 25012G20KT P6SM SCT250=



000
FTUS45 KCYS 290818 AAA
TAFRWL
TAF AMD
KRWL 290818Z 2908/3006 32012KT P6SM SKC
     FM291600 25012G20KT P6SM SCT250=



000
FTUS45 KCYS 290817 AAA
TAFCYS
TAF AMD
KCYS 290817Z 2908/3006 32014G23KT P6SM SKC
     FM291800 31010G20KT P6SM SKC=



000
FTUS45 KCYS 290817 AAA
TAFCYS
TAF AMD
KCYS 290817Z 2908/3006 32014G23KT P6SM SKC
     FM291800 31010G20KT P6SM SKC=



000
FTUS45 KCYS 290817 AAA
TAFCYS
TAF AMD
KCYS 290817Z 2908/3006 32014G23KT P6SM SKC
     FM291800 31010G20KT P6SM SKC=



000
FTUS45 KCYS 290817 AAA
TAFCYS
TAF AMD
KCYS 290817Z 2908/3006 32014G23KT P6SM SKC
     FM291800 31010G20KT P6SM SKC=



000
FTUS45 KCYS 290556 CCA
TAFLAR
TAF COR
KLAR 290556Z 2906/3006 29018KT P6SM SKC
     FM291100 32012KT P6SM SKC
     FM291800 28015G25KT P6SM SCT250=



000
FTUS45 KCYS 290556 CCA
TAFLAR
TAF COR
KLAR 290556Z 2906/3006 29018KT P6SM SKC
     FM291100 32012KT P6SM SKC
     FM291800 28015G25KT P6SM SCT250=



000
FTUS45 KCYS 290556 CCA
TAFLAR
TAF COR
KLAR 290556Z 2906/3006 29018KT P6SM SKC
     FM291100 32012KT P6SM SKC
     FM291800 28015G25KT P6SM SCT250=



000
FTUS45 KCYS 290556 CCA
TAFLAR
TAF COR
KLAR 290556Z 2906/3006 29018KT P6SM SKC
     FM291100 32012KT P6SM SKC
     FM291800 28015G25KT P6SM SCT250=



000
FTUS45 KCYS 290525
TAFCYS
TAF
KCYS 290525Z 2906/3006 31019G27KT P6SM SKC
     FM291800 31010G20KT P6SM SKC=



000
FTUS45 KCYS 290525
TAFRWL
TAF
KRWL 290525Z 2906/3006 27023G35KT P6SM SKC
     FM290800 27018G25KT P6SM SKC
     FM291600 25012G20KT P6SM SCT250=



000
FTUS45 KCYS 290525
TAFCYS
TAF
KCYS 290525Z 2906/3006 31019G27KT P6SM SKC
     FM291800 31010G20KT P6SM SKC=



000
FTUS45 KCYS 290525
TAFRWL
TAF
KRWL 290525Z 2906/3006 27023G35KT P6SM SKC
     FM290800 27018G25KT P6SM SKC
     FM291600 25012G20KT P6SM SCT250=



000
FTUS45 KCYS 290525
TAFLAR
TAF
KLAR 290525Z 2906/3006 27015KT P6SM SKC
     FM291100 32012KT P6SM SKC
     FM291800 28015G25KT P6SM SCT250=



000
FTUS45 KCYS 290525
TAFCYS
TAF
KCYS 290525Z 2906/3006 31019G27KT P6SM SKC
     FM291800 31010G20KT P6SM SKC=



000
FTUS45 KCYS 290525
TAFRWL
TAF
KRWL 290525Z 2906/3006 27023G35KT P6SM SKC
     FM290800 27018G25KT P6SM SKC
     FM291600 25012G20KT P6SM SCT250=



000
FTUS45 KCYS 290525
TAFLAR
TAF
KLAR 290525Z 2906/3006 27015KT P6SM SKC
     FM291100 32012KT P6SM SKC
     FM291800 28015G25KT P6SM SCT250=



000
FTUS45 KCYS 290525
TAFLAR
TAF
KLAR 290525Z 2906/3006 27015KT P6SM SKC
     FM291100 32012KT P6SM SKC
     FM291800 28015G25KT P6SM SCT250=



000
FTUS45 KCYS 290520
TAFRWL
TAF
KRWL 290520Z 2906/3006 25028G40KT P6SM SKC
     FM290800 27020G30KT P6SM SCT150
     FM291600 25012G20KT P6SM SCT250=



000
FTUS45 KCYS 290520
TAFLAR
TAF
KLAR 290520Z 2906/3006 27015G20KT P6SM SCT200
     FM291100 32012KT P6SM SKC
     FM291800 28015G25KT P6SM SCT250=



000
FTUS45 KCYS 290520
TAFCYS
TAF
KCYS 290520Z 2906/3006 29022G29KT P6SM SKC
     FM290600 32015G23KT P6SM SKC
     FM291800 31010G20KT P6SM SKC=



000
FTUS45 KCYS 290520
TAFCYS
TAF
KCYS 290520Z 2906/3006 29022G29KT P6SM SKC
     FM290600 32015G23KT P6SM SKC
     FM291800 31010G20KT P6SM SKC=



000
FTUS45 KCYS 290520
TAFCYS
TAF
KCYS 290520Z 2906/3006 29022G29KT P6SM SKC
     FM290600 32015G23KT P6SM SKC
     FM291800 31010G20KT P6SM SKC=



000
FTUS45 KCYS 290520
TAFRWL
TAF
KRWL 290520Z 2906/3006 25028G40KT P6SM SKC
     FM290800 27020G30KT P6SM SCT150
     FM291600 25012G20KT P6SM SCT250=



000
FTUS45 KCYS 290520
TAFLAR
TAF
KLAR 290520Z 2906/3006 27015G20KT P6SM SCT200
     FM291100 32012KT P6SM SKC
     FM291800 28015G25KT P6SM SCT250=



000
FTUS45 KCYS 290520
TAFRWL
TAF
KRWL 290520Z 2906/3006 25028G40KT P6SM SKC
     FM290800 27020G30KT P6SM SCT150
     FM291600 25012G20KT P6SM SCT250=



000
FTUS45 KCYS 290520
TAFLAR
TAF
KLAR 290520Z 2906/3006 27015G20KT P6SM SCT200
     FM291100 32012KT P6SM SKC
     FM291800 28015G25KT P6SM SCT250=



000
FTUS45 KCYS 290520
TAFCYS
TAF
KCYS 290520Z 2906/3006 29022G29KT P6SM SKC
     FM290600 32015G23KT P6SM SKC
     FM291800 31010G20KT P6SM SKC=



000
FTUS45 KCYS 290520
TAFLAR
TAF
KLAR 290520Z 2906/3006 27015G20KT P6SM SCT200
     FM291100 32012KT P6SM SKC
     FM291800 28015G25KT P6SM SCT250=



000
FTUS45 KCYS 290520
TAFRWL
TAF
KRWL 290520Z 2906/3006 25028G40KT P6SM SKC
     FM290800 27020G30KT P6SM SCT150
     FM291600 25012G20KT P6SM SCT250=



000
FTUS45 KCYS 282320
TAFLAR
TAF
KLAR 282320Z 2900/2924 26023G30KT P6SM SKC
     FM290200 27015KT P6SM SCT200
     FM291100 32008KT P6SM SKC=



000
FTUS45 KCYS 282320
TAFLAR
TAF
KLAR 282320Z 2900/2924 26023G30KT P6SM SKC
     FM290200 27015KT P6SM SCT200
     FM291100 32008KT P6SM SKC=



000
FTUS45 KCYS 282320
TAFRWL
TAF
KRWL 282320Z 2900/2924 25030G45KT P6SM SKC
     FM290200 27020G30KT P6SM SCT150
     FM290900 30006KT P6SM SKC=



000
FTUS45 KCYS 282320
TAFCYS
TAF
KCYS 282320Z 2900/2924 28022G29KT P6SM SKC
     FM290100 29014G22KT P6SM SCT250
     FM290600 32015G23KT P6SM SKC=



000
FTUS45 KCYS 282204 AAA
TAFRWL
TAF AMD
KRWL 282204Z 2822/2918 25030G41KT P6SM SCT120
     FM290200 27017G25KT P6SM SCT150
     FM290900 30006KT P6SM SKC=



000
FTUS45 KCYS 282204 AAA
TAFRWL
TAF AMD
KRWL 282204Z 2822/2918 25030G41KT P6SM SCT120
     FM290200 27017G25KT P6SM SCT150
     FM290900 30006KT P6SM SKC=



000
FTUS45 KCYS 281739
TAFRWL
TAF
KRWL 281739Z 2818/2918 25025G33KT P6SM SKC
     FM290100 27017G25KT P6SM SCT150
     FM290900 30006KT P6SM SKC=



000
FTUS45 KCYS 281739
TAFRWL
TAF
KRWL 281739Z 2818/2918 25025G33KT P6SM SKC
     FM290100 27017G25KT P6SM SCT150
     FM290900 30006KT P6SM SKC=



000
FTUS45 KCYS 281739
TAFCYS
TAF
KCYS 281739Z 2818/2918 28022G29KT P6SM SKC
     FM290100 29014G22KT P6SM SCT250
     FM290600 32015G23KT P6SM SKC=



000
FTUS45 KCYS 281739
TAFRWL
TAF
KRWL 281739Z 2818/2918 25025G33KT P6SM SKC
     FM290100 27017G25KT P6SM SCT150
     FM290900 30006KT P6SM SKC=



000
FTUS45 KCYS 281739
TAFLAR
TAF
KLAR 281739Z 2818/2918 26023G30KT P6SM SKC
     FM290100 27015KT P6SM SCT200
     FM291100 32008KT P6SM SKC=



000
FTUS45 KCYS 281739
TAFLAR
TAF
KLAR 281739Z 2818/2918 26023G30KT P6SM SKC
     FM290100 27015KT P6SM SCT200
     FM291100 32008KT P6SM SKC=



000
FTUS45 KCYS 281739
TAFCYS
TAF
KCYS 281739Z 2818/2918 28022G29KT P6SM SKC
     FM290100 29014G22KT P6SM SCT250
     FM290600 32015G23KT P6SM SKC=



000
FTUS45 KCYS 281739
TAFRWL
TAF
KRWL 281739Z 2818/2918 25025G33KT P6SM SKC
     FM290100 27017G25KT P6SM SCT150
     FM290900 30006KT P6SM SKC=



000
FTUS45 KCYS 281739
TAFLAR
TAF
KLAR 281739Z 2818/2918 26023G30KT P6SM SKC
     FM290100 27015KT P6SM SCT200
     FM291100 32008KT P6SM SKC=



000
FTUS45 KCYS 281739
TAFCYS
TAF
KCYS 281739Z 2818/2918 28022G29KT P6SM SKC
     FM290100 29014G22KT P6SM SCT250
     FM290600 32015G23KT P6SM SKC=



000
FTUS45 KCYS 281739
TAFCYS
TAF
KCYS 281739Z 2818/2918 28022G29KT P6SM SKC
     FM290100 29014G22KT P6SM SCT250
     FM290600 32015G23KT P6SM SKC=



000
FTUS45 KCYS 281739
TAFLAR
TAF
KLAR 281739Z 2818/2918 26023G30KT P6SM SKC
     FM290100 27015KT P6SM SCT200
     FM291100 32008KT P6SM SKC=



000
FTUS45 KCYS 281120
TAFLAR
TAF
KLAR 281120Z 2812/2912 25009KT P6SM SKC
     FM281700 26021G28KT P6SM SKC
     FM290100 27015KT P6SM SCT120=



000
FTUS45 KCYS 281120
TAFRWL
TAF
KRWL 281120Z 2812/2912 25012KT P6SM SKC
     FM281700 25023G33KT P6SM SKC
     FM290100 27017KT P6SM SKC=



000
FTUS45 KCYS 281120
TAFLAR
TAF
KLAR 281120Z 2812/2912 25009KT P6SM SKC
     FM281700 26021G28KT P6SM SKC
     FM290100 27015KT P6SM SCT120=



000
FTUS45 KCYS 281120
TAFRWL
TAF
KRWL 281120Z 2812/2912 25012KT P6SM SKC
     FM281700 25023G33KT P6SM SKC
     FM290100 27017KT P6SM SKC=



000
FTUS45 KCYS 281120
TAFRWL
TAF
KRWL 281120Z 2812/2912 25012KT P6SM SKC
     FM281700 25023G33KT P6SM SKC
     FM290100 27017KT P6SM SKC=



000
FTUS45 KCYS 281120
TAFLAR
TAF
KLAR 281120Z 2812/2912 25009KT P6SM SKC
     FM281700 26021G28KT P6SM SKC
     FM290100 27015KT P6SM SCT120=



000
FTUS45 KCYS 281120
TAFCYS
TAF
KCYS 281120Z 2812/2912 28011KT P6SM SKC
     FM281600 28018G27KT P6SM SKC
     FM290100 29011KT P6SM SCT080=



000
FTUS45 KCYS 281120
TAFCYS
TAF
KCYS 281120Z 2812/2912 28011KT P6SM SKC
     FM281600 28018G27KT P6SM SKC
     FM290100 29011KT P6SM SCT080=



000
FTUS45 KCYS 281120
TAFCYS
TAF
KCYS 281120Z 2812/2912 28011KT P6SM SKC
     FM281600 28018G27KT P6SM SKC
     FM290100 29011KT P6SM SCT080=



000
FTUS45 KCYS 281120
TAFCYS
TAF
KCYS 281120Z 2812/2912 28011KT P6SM SKC
     FM281600 28018G27KT P6SM SKC
     FM290100 29011KT P6SM SCT080=



000
FTUS45 KCYS 280520
TAFRWL
TAF
KRWL 280520Z 2806/2906 25006KT P6SM SKC
     FM281700 25023G33KT P6SM SKC
     FM290100 27017KT P6SM SKC=



000
FTUS45 KCYS 280520
TAFLAR
TAF
KLAR 280520Z 2806/2906 24007KT P6SM SKC
     FM281700 26021G28KT P6SM SKC
     FM290100 27015KT P6SM SCT120=



000
FTUS45 KCYS 280520
TAFRWL
TAF
KRWL 280520Z 2806/2906 25006KT P6SM SKC
     FM281700 25023G33KT P6SM SKC
     FM290100 27017KT P6SM SKC=



000
FTUS45 KCYS 280520
TAFLAR
TAF
KLAR 280520Z 2806/2906 24007KT P6SM SKC
     FM281700 26021G28KT P6SM SKC
     FM290100 27015KT P6SM SCT120=



000
FTUS45 KCYS 280520
TAFLAR
TAF
KLAR 280520Z 2806/2906 24007KT P6SM SKC
     FM281700 26021G28KT P6SM SKC
     FM290100 27015KT P6SM SCT120=



000
FTUS45 KCYS 280520
TAFCYS
TAF
KCYS 280520Z 2806/2906 28011KT P6SM SKC
     FM281600 28018G27KT P6SM SKC
     FM290100 29011KT P6SM SKC=



000
FTUS45 KCYS 280520
TAFCYS
TAF
KCYS 280520Z 2806/2906 28011KT P6SM SKC
     FM281600 28018G27KT P6SM SKC
     FM290100 29011KT P6SM SKC=



000
FTUS45 KCYS 280520
TAFRWL
TAF
KRWL 280520Z 2806/2906 25006KT P6SM SKC
     FM281700 25023G33KT P6SM SKC
     FM290100 27017KT P6SM SKC=



000
FTUS45 KCYS 280520
TAFCYS
TAF
KCYS 280520Z 2806/2906 28011KT P6SM SKC
     FM281600 28018G27KT P6SM SKC
     FM290100 29011KT P6SM SKC=



000
FTUS45 KCYS 280520
TAFCYS
TAF
KCYS 280520Z 2806/2906 28011KT P6SM SKC
     FM281600 28018G27KT P6SM SKC
     FM290100 29011KT P6SM SKC=



000
FTUS45 KCYS 280520
TAFRWL
TAF
KRWL 280520Z 2806/2906 25006KT P6SM SKC
     FM281700 25023G33KT P6SM SKC
     FM290100 27017KT P6SM SKC=



000
FTUS45 KCYS 280520
TAFLAR
TAF
KLAR 280520Z 2806/2906 24007KT P6SM SKC
     FM281700 26021G28KT P6SM SKC
     FM290100 27015KT P6SM SCT120=



000
FTUS45 KCYS 272332
TAFCYS
TAF
KCYS 272332Z 2800/2824 31016G30KT P6SM BKN100
     FM280200 29010KT P6SM SCT200
     FM281500 29016G26KT P6SM SKC
     FM281800 28023G35KT P6SM SKC=



000
FTUS45 KCYS 272332
TAFRWL
TAF
KRWL 272332Z 2800/2824 29014G22KT P6SM FEW100 BKN200
     FM280200 25007KT P6SM SCT250
     FM281400 24017G26KT P6SM SKC
     FM281700 25025G37KT P6SM SKC=



000
FTUS45 KCYS 272332
TAFLAR
TAF
KLAR 272332Z 2800/2824 31025G31KT P6SM BKN090
     FM280100 29018G27KT P6SM SCT100
     FM280200 26010KT P6SM FEW200
     FM281400 25014G22KT P6SM SKC
     FM281800 28024G35KT P6SM SKC=



000
FTUS45 KCYS 272332
TAFCYS
TAF
KCYS 272332Z 2800/2824 31016G30KT P6SM BKN100
     FM280200 29010KT P6SM SCT200
     FM281500 29016G26KT P6SM SKC
     FM281800 28023G35KT P6SM SKC=



000
FTUS45 KCYS 272332
TAFLAR
TAF
KLAR 272332Z 2800/2824 31025G31KT P6SM BKN090
     FM280100 29018G27KT P6SM SCT100
     FM280200 26010KT P6SM FEW200
     FM281400 25014G22KT P6SM SKC
     FM281800 28024G35KT P6SM SKC=



000
FTUS45 KCYS 272332
TAFRWL
TAF
KRWL 272332Z 2800/2824 29014G22KT P6SM FEW100 BKN200
     FM280200 25007KT P6SM SCT250
     FM281400 24017G26KT P6SM SKC
     FM281700 25025G37KT P6SM SKC=



000
FTUS45 KCYS 272332
TAFCYS
TAF
KCYS 272332Z 2800/2824 31016G30KT P6SM BKN100
     FM280200 29010KT P6SM SCT200
     FM281500 29016G26KT P6SM SKC
     FM281800 28023G35KT P6SM SKC=



000
FTUS45 KCYS 272332
TAFRWL
TAF
KRWL 272332Z 2800/2824 29014G22KT P6SM FEW100 BKN200
     FM280200 25007KT P6SM SCT250
     FM281400 24017G26KT P6SM SKC
     FM281700 25025G37KT P6SM SKC=



000
FTUS45 KCYS 272332
TAFCYS
TAF
KCYS 272332Z 2800/2824 31016G30KT P6SM BKN100
     FM280200 29010KT P6SM SCT200
     FM281500 29016G26KT P6SM SKC
     FM281800 28023G35KT P6SM SKC=



000
FTUS45 KCYS 272332
TAFRWL
TAF
KRWL 272332Z 2800/2824 29014G22KT P6SM FEW100 BKN200
     FM280200 25007KT P6SM SCT250
     FM281400 24017G26KT P6SM SKC
     FM281700 25025G37KT P6SM SKC=



000
FTUS45 KCYS 272332
TAFLAR
TAF
KLAR 272332Z 2800/2824 31025G31KT P6SM BKN090
     FM280100 29018G27KT P6SM SCT100
     FM280200 26010KT P6SM FEW200
     FM281400 25014G22KT P6SM SKC
     FM281800 28024G35KT P6SM SKC=



000
FTUS45 KCYS 272332
TAFLAR
TAF
KLAR 272332Z 2800/2824 31025G31KT P6SM BKN090
     FM280100 29018G27KT P6SM SCT100
     FM280200 26010KT P6SM FEW200
     FM281400 25014G22KT P6SM SKC
     FM281800 28024G35KT P6SM SKC=



000
FTUS45 KCYS 271720
TAFRWL
TAF
KRWL 271720Z 2718/2818 27014G22KT P6SM BKN200
     FM280200 25007KT P6SM SCT250=



000
FTUS45 KCYS 271720
TAFCYS
TAF
KCYS 271720Z 2718/2818 31016G30KT P6SM SCT200
     FM280200 29010KT P6SM SCT200=



000
FTUS45 KCYS 271720
TAFLAR
TAF
KLAR 271720Z 2718/2818 29018G27KT P6SM SCT200
     FM280200 26010KT P6SM FEW200=



000
FTUS45 KCYS 271720
TAFRWL
TAF
KRWL 271720Z 2718/2818 27014G22KT P6SM BKN200
     FM280200 25007KT P6SM SCT250=



000
FTUS45 KCYS 271720
TAFLAR
TAF
KLAR 271720Z 2718/2818 29018G27KT P6SM SCT200
     FM280200 26010KT P6SM FEW200=



000
FTUS45 KCYS 271720
TAFCYS
TAF
KCYS 271720Z 2718/2818 31016G30KT P6SM SCT200
     FM280200 29010KT P6SM SCT200=



000
FTUS45 KCYS 271132
TAFLAR
TAF
KLAR 271132Z 2712/2812 26008KT P6SM OVC070
     FM271700 29015G25KT P6SM BKN200
     FM280200 26010KT P6SM SCT200=



000
FTUS45 KCYS 271132
TAFRWL
TAF
KRWL 271132Z 2712/2812 26008KT P6SM SCT100
     FM271500 26018G29KT P6SM BKN200
     FM280200 25007KT P6SM SCT250=



000
FTUS45 KCYS 271132
TAFLAR
TAF
KLAR 271132Z 2712/2812 26008KT P6SM OVC070
     FM271700 29015G25KT P6SM BKN200
     FM280200 26010KT P6SM SCT200=



000
FTUS45 KCYS 271132
TAFLAR
TAF
KLAR 271132Z 2712/2812 26008KT P6SM OVC070
     FM271700 29015G25KT P6SM BKN200
     FM280200 26010KT P6SM SCT200=



000
FTUS45 KCYS 271132
TAFCYS
TAF
KCYS 271132Z 2712/2812 28011KT P6SM OVC080
     FM271600 31016G30KT P6SM BKN200
     FM280200 29010KT P6SM SCT200=



000
FTUS45 KCYS 271132
TAFRWL
TAF
KRWL 271132Z 2712/2812 26008KT P6SM SCT100
     FM271500 26018G29KT P6SM BKN200
     FM280200 25007KT P6SM SCT250=



000
FTUS45 KCYS 271132
TAFRWL
TAF
KRWL 271132Z 2712/2812 26008KT P6SM SCT100
     FM271500 26018G29KT P6SM BKN200
     FM280200 25007KT P6SM SCT250=



000
FTUS45 KCYS 271132
TAFCYS
TAF
KCYS 271132Z 2712/2812 28011KT P6SM OVC080
     FM271600 31016G30KT P6SM BKN200
     FM280200 29010KT P6SM SCT200=



000
FTUS45 KCYS 271132
TAFCYS
TAF
KCYS 271132Z 2712/2812 28011KT P6SM OVC080
     FM271600 31016G30KT P6SM BKN200
     FM280200 29010KT P6SM SCT200=



000
FTUS45 KCYS 271132
TAFLAR
TAF
KLAR 271132Z 2712/2812 26008KT P6SM OVC070
     FM271700 29015G25KT P6SM BKN200
     FM280200 26010KT P6SM SCT200=



000
FTUS45 KCYS 271132
TAFRWL
TAF
KRWL 271132Z 2712/2812 26008KT P6SM SCT100
     FM271500 26018G29KT P6SM BKN200
     FM280200 25007KT P6SM SCT250=



000
FTUS45 KCYS 271132
TAFCYS
TAF
KCYS 271132Z 2712/2812 28011KT P6SM OVC080
     FM271600 31016G30KT P6SM BKN200
     FM280200 29010KT P6SM SCT200=



000
FTUS45 KCYS 270548
TAFCYS
TAF
KCYS 270548Z 2706/2806 VRB05KT P6SM BKN100
     FM271000 28011KT P6SM BKN100
     FM271600 31016G30KT P6SM BKN200
     FM280200 29010KT P6SM SCT200=



000
FTUS45 KCYS 270548
TAFRWL
TAF
KRWL 270548Z 2706/2806 26008KT P6SM SCT100
     FM271500 26018G29KT P6SM BKN200
     FM280200 25007KT P6SM SCT250=



000
FTUS45 KCYS 270548
TAFLAR
TAF
KLAR 270548Z 2706/2806 26008KT P6SM BKN070
     FM271700 29015G25KT P6SM BKN200
     FM280200 26010KT P6SM SCT200=



000
FTUS45 KCYS 270548
TAFCYS
TAF
KCYS 270548Z 2706/2806 VRB05KT P6SM BKN100
     FM271000 28011KT P6SM BKN100
     FM271600 31016G30KT P6SM BKN200
     FM280200 29010KT P6SM SCT200=



000
FTUS45 KCYS 270548
TAFRWL
TAF
KRWL 270548Z 2706/2806 26008KT P6SM SCT100
     FM271500 26018G29KT P6SM BKN200
     FM280200 25007KT P6SM SCT250=



000
FTUS45 KCYS 270548
TAFLAR
TAF
KLAR 270548Z 2706/2806 26008KT P6SM BKN070
     FM271700 29015G25KT P6SM BKN200
     FM280200 26010KT P6SM SCT200=



000
FTUS45 KCYS 270548
TAFCYS
TAF
KCYS 270548Z 2706/2806 VRB05KT P6SM BKN100
     FM271000 28011KT P6SM BKN100
     FM271600 31016G30KT P6SM BKN200
     FM280200 29010KT P6SM SCT200=



000
FTUS45 KCYS 270548
TAFCYS
TAF
KCYS 270548Z 2706/2806 VRB05KT P6SM BKN100
     FM271000 28011KT P6SM BKN100
     FM271600 31016G30KT P6SM BKN200
     FM280200 29010KT P6SM SCT200=



000
FTUS45 KCYS 270548
TAFRWL
TAF
KRWL 270548Z 2706/2806 26008KT P6SM SCT100
     FM271500 26018G29KT P6SM BKN200
     FM280200 25007KT P6SM SCT250=



000
FTUS45 KCYS 270548
TAFLAR
TAF
KLAR 270548Z 2706/2806 26008KT P6SM BKN070
     FM271700 29015G25KT P6SM BKN200
     FM280200 26010KT P6SM SCT200=



000
FTUS45 KCYS 270548
TAFLAR
TAF
KLAR 270548Z 2706/2806 26008KT P6SM BKN070
     FM271700 29015G25KT P6SM BKN200
     FM280200 26010KT P6SM SCT200=



000
FTUS45 KCYS 270548
TAFRWL
TAF
KRWL 270548Z 2706/2806 26008KT P6SM SCT100
     FM271500 26018G29KT P6SM BKN200
     FM280200 25007KT P6SM SCT250=



000
FTUS45 KCYS 270020 CCA
TAFCYS
TAF COR
KCYS 270020Z 2700/2724 03010KT P6SM -SHRA BKN100
     FM270200 30010KT P6SM SCT100
     FM271600 31016G30KT P6SM BKN200=



000
FTUS45 KCYS 270020 CCA
TAFCYS
TAF COR
KCYS 270020Z 2700/2724 03010KT P6SM -SHRA BKN100
     FM270200 30010KT P6SM SCT100
     FM271600 31016G30KT P6SM BKN200=



000
FTUS45 KCYS 270020 CCA
TAFCYS
TAF COR
KCYS 270020Z 2700/2724 03010KT P6SM -SHRA BKN100
     FM270200 30010KT P6SM SCT100
     FM271600 31016G30KT P6SM BKN200=



000
FTUS45 KCYS 270020 CCA
TAFCYS
TAF COR
KCYS 270020Z 2700/2724 03010KT P6SM -SHRA BKN100
     FM270200 30010KT P6SM SCT100
     FM271600 31016G30KT P6SM BKN200=



000
FTUS45 KCYS 270003 RRA
TAFLAR
TAF
KLAR 270003Z 2700/2724 31016G28KT P6SM BKN100
     FM270200 26011KT P6SM SCT150
     FM271700 29015G25KT P6SM BKN200=



000
FTUS45 KCYS 270003 RRA
TAFRWL
TAF
KRWL 270003Z 2700/2724 27018G30KT P6SM SCT150
     FM270200 25013KT P6SM SCT100
     FM271500 25018G29KT P6SM BKN200=



000
FTUS45 KCYS 270003 RRA
TAFCYS
TAF
KCYS 270003Z 2700/2724 29014G25KT P6SM VCSH BKN100
     FM270200 30010KT P6SM SCT100
     FM271600 31016G30KT P6SM BKN200=



000
FTUS45 KCYS 270003 RRA
TAFRWL
TAF
KRWL 270003Z 2700/2724 27018G30KT P6SM SCT150
     FM270200 25013KT P6SM SCT100
     FM271500 25018G29KT P6SM BKN200=



000
FTUS45 KCYS 270003 RRA
TAFLAR
TAF
KLAR 270003Z 2700/2724 31016G28KT P6SM BKN100
     FM270200 26011KT P6SM SCT150
     FM271700 29015G25KT P6SM BKN200=



000
FTUS45 KCYS 270003 RRA
TAFCYS
TAF
KCYS 270003Z 2700/2724 29014G25KT P6SM VCSH BKN100
     FM270200 30010KT P6SM SCT100
     FM271600 31016G30KT P6SM BKN200=



000
FTUS45 KCYS 270003 RRA
TAFRWL
TAF
KRWL 270003Z 2700/2724 27018G30KT P6SM SCT150
     FM270200 25013KT P6SM SCT100
     FM271500 25018G29KT P6SM BKN200=



000
FTUS45 KCYS 270003 RRA
TAFRWL
TAF
KRWL 270003Z 2700/2724 27018G30KT P6SM SCT150
     FM270200 25013KT P6SM SCT100
     FM271500 25018G29KT P6SM BKN200=



000
FTUS45 KCYS 270003 RRA
TAFLAR
TAF
KLAR 270003Z 2700/2724 31016G28KT P6SM BKN100
     FM270200 26011KT P6SM SCT150
     FM271700 29015G25KT P6SM BKN200=



000
FTUS45 KCYS 270003 RRA
TAFCYS
TAF
KCYS 270003Z 2700/2724 29014G25KT P6SM VCSH BKN100
     FM270200 30010KT P6SM SCT100
     FM271600 31016G30KT P6SM BKN200=



000
FTUS45 KCYS 270003 RRA
TAFLAR
TAF
KLAR 270003Z 2700/2724 31016G28KT P6SM BKN100
     FM270200 26011KT P6SM SCT150
     FM271700 29015G25KT P6SM BKN200=



000
FTUS45 KCYS 270003 RRA
TAFCYS
TAF
KCYS 270003Z 2700/2724 29014G25KT P6SM VCSH BKN100
     FM270200 30010KT P6SM SCT100
     FM271600 31016G30KT P6SM BKN200=



000
FTUS45 KCYS 261720
TAFLAR
TAF
KLAR 261720Z 2618/2718 31020G32KT P6SM BKN100
     FM270100 26014KT P6SM SCT150
     FM271600 29015G25KT P6SM BKN200=



000
FTUS45 KCYS 261720
TAFRWL
TAF
KRWL 261720Z 2618/2718 27018G30KT P6SM SCT150
     FM270200 25013KT P6SM SCT100
     FM271600 25015G25KT P6SM BKN200=



000
FTUS45 KCYS 261720
TAFCYS
TAF
KCYS 261720Z 2618/2718 31022G35KT P6SM BKN070
     FM262300 29014KT P6SM SCT100
     FM271600 31016G30KT P6SM BKN200=



000
FTUS45 KCYS 261720
TAFLAR
TAF
KLAR 261720Z 2618/2718 31020G32KT P6SM BKN100
     FM270100 26014KT P6SM SCT150
     FM271600 29015G25KT P6SM BKN200=



000
FTUS45 KCYS 261720
TAFCYS
TAF
KCYS 261720Z 2618/2718 31022G35KT P6SM BKN070
     FM262300 29014KT P6SM SCT100
     FM271600 31016G30KT P6SM BKN200=



000
FTUS45 KCYS 261720
TAFRWL
TAF
KRWL 261720Z 2618/2718 27018G30KT P6SM SCT150
     FM270200 25013KT P6SM SCT100
     FM271600 25015G25KT P6SM BKN200=



000
FTUS45 KCYS 261720
TAFLAR
TAF
KLAR 261720Z 2618/2718 31020G32KT P6SM BKN100
     FM270100 26014KT P6SM SCT150
     FM271600 29015G25KT P6SM BKN200=



000
FTUS45 KCYS 261720
TAFRWL
TAF
KRWL 261720Z 2618/2718 27018G30KT P6SM SCT150
     FM270200 25013KT P6SM SCT100
     FM271600 25015G25KT P6SM BKN200=



000
FTUS45 KCYS 261720
TAFCYS
TAF
KCYS 261720Z 2618/2718 31022G35KT P6SM BKN070
     FM262300 29014KT P6SM SCT100
     FM271600 31016G30KT P6SM BKN200=



000
FTUS45 KCYS 261720
TAFCYS
TAF
KCYS 261720Z 2618/2718 31022G35KT P6SM BKN070
     FM262300 29014KT P6SM SCT100
     FM271600 31016G30KT P6SM BKN200=



000
FTUS45 KCYS 261720
TAFLAR
TAF
KLAR 261720Z 2618/2718 31020G32KT P6SM BKN100
     FM270100 26014KT P6SM SCT150
     FM271600 29015G25KT P6SM BKN200=



000
FTUS45 KCYS 261720
TAFRWL
TAF
KRWL 261720Z 2618/2718 27018G30KT P6SM SCT150
     FM270200 25013KT P6SM SCT100
     FM271600 25015G25KT P6SM BKN200=



000
FTUS45 KCYS 261501 AAA
TAFLAR
TAF AMD
KLAR 261501Z 2615/2712 23015KT P6SM SCT150
     FM261700 30020G32KT P6SM BKN100 BKN250
     FM270100 29014KT P6SM SCT150=



000
FTUS45 KCYS 261501 AAA
TAFLAR
TAF AMD
KLAR 261501Z 2615/2712 23015KT P6SM SCT150
     FM261700 30020G32KT P6SM BKN100 BKN250
     FM270100 29014KT P6SM SCT150=



    US Dept of Commerce
    National Oceanic and Atmospheric Administration
    National Weather Service
    1325 East West Highway
    Silver Spring, MD 20910
    Page Author: NWS Internet Services Team
Disclaimer
Information Quality
Credits
Glossary
Privacy Policy
Freedom of Information Act (FOIA)
About Us
Career Opportunities